createdAt,value
2023-02-01T00:00:48.387Z,87.32
2023-02-01T00:05:58.261Z,84.70
2023-02-01T00:11:01.824Z,85.58
2023-02-01T00:16:18.185Z,86.04
2023-02-01T00:21:21.596Z,86.07
2023-02-01T00:26:42.829Z,85.83
2023-02-01T00:31:45.589Z,87.27
2023-02-01T00:36:47.723Z,86.38
2023-02-01T00:41:49.459Z,87.29
2023-02-01T00:46:51.198Z,85.55
2023-02-01T00:51:52.993Z,84.78
2023-02-01T00:56:54.760Z,84.83
2023-02-01T01:01:56.458Z,83.82
2023-02-01T01:06:58.736Z,83.65
2023-02-01T01:12:03.652Z,83.64
2023-02-01T01:17:06.579Z,83.33
2023-02-01T01:22:08.256Z,82.85
2023-02-01T01:27:10.021Z,82.93
2023-02-01T01:32:11.645Z,82.26
2023-02-01T01:37:13.271Z,82.33
2023-02-01T01:42:15.198Z,80.79
2023-02-01T01:47:17.474Z,81.21
2023-02-01T01:52:19.933Z,81.29
2023-02-01T01:57:30.553Z,81.43
2023-02-01T02:02:32.733Z,80.63
2023-02-01T02:07:38.491Z,80.21
2023-02-01T02:12:42.813Z,79.79
2023-02-01T02:18:19.216Z,79.22
2023-02-01T02:23:39.600Z,77.92
2023-02-01T02:28:50.264Z,78.05
2023-02-01T02:34:18.936Z,77.79
2023-02-01T02:39:48.028Z,76.95
2023-02-01T02:45:38.125Z,78.49
2023-02-01T02:51:06.037Z,78.86
2023-02-01T02:56:30.077Z,78.31
2023-02-01T03:01:52.007Z,78.23
2023-02-01T03:06:54.795Z,78.53
2023-02-01T03:12:21.717Z,78.28
2023-02-01T03:17:31.524Z,78.67
2023-02-01T03:22:36.245Z,78.66
2023-02-01T03:27:53.073Z,79.02
2023-02-01T03:33:00.384Z,79.60
2023-02-01T03:38:41.924Z,77.96
2023-02-01T03:43:51.485Z,77.41
2023-02-01T03:48:55.220Z,77.99
2023-02-01T03:53:58.157Z,77.52
2023-02-01T03:59:00.139Z,77.83
2023-02-01T04:04:06.331Z,77.38
2023-02-01T04:09:08.830Z,77.28
2023-02-01T04:14:10.722Z,76.61
2023-02-01T04:19:12.541Z,76.56
2023-02-01T04:24:14.266Z,75.98
2023-02-01T04:29:16.005Z,75.26
2023-02-01T04:34:17.730Z,75.24
2023-02-01T04:39:19.492Z,75.47
2023-02-01T04:44:21.458Z,74.77
2023-02-01T04:49:23.126Z,75.95
2023-02-01T04:54:24.765Z,75.05
2023-02-01T04:59:27.580Z,76.00
2023-02-01T05:04:29.379Z,74.45
2023-02-01T05:09:31.034Z,73.87
2023-02-01T05:14:32.713Z,74.87
2023-02-01T05:19:34.429Z,73.78
2023-02-01T05:24:36.196Z,74.00
2023-02-01T05:29:38.071Z,73.98
2023-02-01T05:34:40.266Z,74.29
2023-02-01T05:39:42.046Z,73.85
2023-02-01T05:44:43.788Z,73.70
2023-02-01T05:49:45.472Z,73.95
2023-02-01T05:54:48.274Z,74.82
2023-02-01T05:59:49.975Z,73.69
2023-02-01T06:04:52.415Z,73.35
2023-02-01T06:09:54.030Z,74.09
2023-02-01T06:14:55.684Z,73.56
2023-02-01T06:19:57.452Z,74.45
2023-02-01T06:24:59.970Z,73.91
2023-02-01T06:30:01.621Z,73.85
2023-02-01T06:35:04.187Z,73.83
2023-02-01T06:40:06.487Z,74.32
2023-02-01T06:45:08.826Z,76.05
2023-02-01T06:50:11.031Z,77.08
2023-02-01T06:55:12.897Z,76.98
2023-02-01T07:00:15.069Z,77.69
2023-02-01T07:05:17.586Z,77.16
2023-02-01T07:10:19.467Z,78.98
2023-02-01T07:15:21.076Z,81.08
2023-02-01T07:20:23.623Z,83.54
2023-02-01T07:25:25.592Z,88.01
2023-02-01T07:30:27.374Z,90.18
2023-02-01T07:35:29.946Z,92.64
2023-02-01T07:40:31.664Z,94.94
2023-02-01T07:45:35.235Z,93.16
2023-02-01T07:50:38.575Z,92.83
2023-02-01T07:55:41.191Z,90.31
2023-02-01T08:01:01.467Z,88.36
2023-02-01T08:06:03.581Z,87.03
2023-02-01T08:11:07.152Z,88.42
2023-02-01T08:16:10.879Z,88.44
2023-02-01T08:21:15.165Z,88.81
2023-02-01T08:26:24.300Z,89.74
2023-02-01T08:31:28.383Z,91.95
2023-02-01T08:36:31.542Z,89.29
2023-02-01T08:41:33.307Z,87.44
2023-02-01T08:46:35.063Z,83.56
2023-02-01T08:51:36.725Z,81.17
2023-02-01T08:56:38.453Z,78.51
2023-02-01T09:01:40.350Z,78.33
2023-02-01T09:06:42.352Z,77.29
2023-02-01T09:11:44.043Z,77.28
2023-02-01T09:16:45.715Z,79.12
2023-02-01T09:21:47.465Z,79.41
2023-02-01T09:26:49.420Z,81.35
2023-02-01T09:32:02.832Z,85.63
2023-02-01T09:37:05.404Z,88.54
2023-02-01T09:42:21.072Z,90.41
2023-02-01T09:47:25.216Z,94.78
2023-02-01T09:52:39.908Z,98.04
2023-02-01T09:57:49.198Z,100.00
2023-02-01T10:02:51.731Z,100.00
2023-02-01T10:08:19.223Z,100.00
2023-02-01T10:13:42.594Z,100.00
2023-02-01T10:18:51.499Z,100.00
2023-02-01T10:24:16.821Z,100.00
2023-02-01T10:29:21.644Z,100.00
2023-02-01T10:34:31.046Z,100.00
2023-02-01T10:39:32.772Z,100.00
2023-02-01T10:44:41.565Z,100.00
2023-02-01T10:50:16.647Z,100.00
2023-02-01T10:55:28.641Z,100.00
2023-02-01T11:00:44.362Z,99.58
2023-02-01T11:05:48.831Z,96.24
2023-02-01T11:11:02.856Z,93.92
2023-02-01T11:16:05.865Z,92.76
2023-02-01T11:21:10.164Z,92.65
2023-02-01T11:26:26.634Z,88.33
2023-02-01T11:31:29.389Z,90.06
2023-02-01T11:36:33.756Z,86.76
2023-02-01T11:41:41.206Z,87.29
2023-02-01T11:46:43.047Z,86.11
2023-02-01T11:51:56.124Z,86.75
2023-02-01T11:57:19.425Z,88.01
2023-02-01T12:02:26.977Z,91.20
2023-02-01T12:07:47.831Z,89.91
2023-02-01T12:12:49.505Z,88.29
2023-02-01T12:18:07.621Z,84.04
2023-02-01T12:23:21.028Z,83.00
2023-02-01T12:29:01.286Z,82.28
2023-02-01T12:34:02.878Z,81.38
2023-02-01T12:39:10.423Z,82.58
2023-02-01T12:44:18.093Z,82.19
2023-02-01T12:49:28.490Z,82.57
2023-02-01T12:54:43.655Z,82.80
2023-02-01T13:00:03.588Z,83.26
2023-02-01T13:05:18.313Z,80.55
2023-02-01T13:10:31.533Z,79.81
2023-02-01T13:15:40.088Z,79.89
2023-02-01T13:21:08.133Z,79.85
2023-02-01T13:26:09.885Z,78.87
2023-02-01T13:31:21.021Z,77.70
2023-02-01T13:36:45.740Z,77.06
2023-02-01T13:42:00.938Z,75.31
2023-02-01T13:47:11.411Z,75.19
2023-02-01T13:52:41.738Z,73.93
2023-02-01T13:57:45.975Z,72.83
2023-02-01T14:02:50.942Z,73.55
2023-02-01T14:08:10.789Z,70.58
2023-02-01T14:13:37.157Z,71.38
2023-02-01T14:18:38.875Z,72.61
2023-02-01T14:23:43.848Z,69.58
2023-02-01T14:29:18.638Z,69.51
2023-02-01T14:34:25.831Z,68.68
2023-02-01T14:39:38.769Z,68.51
2023-02-01T14:44:40.661Z,69.80
2023-02-01T14:50:13.445Z,70.37
2023-02-01T14:55:36.953Z,71.25
2023-02-01T15:00:38.746Z,69.86
2023-02-01T15:05:40.598Z,71.50
2023-02-01T15:10:46.441Z,70.55
2023-02-01T15:16:02.533Z,70.35
2023-02-01T15:21:26.383Z,73.59
2023-02-01T15:26:30.612Z,75.79
2023-02-01T15:31:42.239Z,77.63
2023-02-01T15:37:00.370Z,76.71
2023-02-01T15:42:16.656Z,74.67
2023-02-01T15:47:21.483Z,72.90
2023-02-01T15:52:42.494Z,72.71
2023-02-01T15:57:44.871Z,71.03
2023-02-01T16:03:02.034Z,70.86
2023-02-01T16:08:22.875Z,76.64
2023-02-01T16:13:24.618Z,81.34
2023-02-01T16:18:26.372Z,82.54
2023-02-01T16:23:31.456Z,83.39
2023-02-01T16:28:34.355Z,84.86
2023-02-01T16:33:36.712Z,88.05
2023-02-01T16:38:38.416Z,90.44
2023-02-01T16:43:40.338Z,93.16
2023-02-01T16:48:43.784Z,94.91
2023-02-01T16:53:54.243Z,95.88
2023-02-01T16:58:57.331Z,96.28
2023-02-01T17:03:59.139Z,97.73
2023-02-01T17:09:03.227Z,100.00
2023-02-01T17:14:19.444Z,100.00
2023-02-01T17:19:24.383Z,100.00
2023-02-01T17:24:42.361Z,100.00
2023-02-01T17:29:49.190Z,100.00
2023-02-01T17:34:50.911Z,100.00
2023-02-01T17:39:55.429Z,100.00
2023-02-01T17:45:01.058Z,100.00
2023-02-01T17:50:02.994Z,100.00
2023-02-01T17:55:18.070Z,100.00
2023-02-01T18:00:20.675Z,100.00
2023-02-01T18:05:27.281Z,100.00
2023-02-01T18:10:29.037Z,100.00
2023-02-01T18:15:31.932Z,100.00
2023-02-01T18:20:36.394Z,100.00
2023-02-01T18:25:38.712Z,100.00
2023-02-01T18:30:40.747Z,100.00
2023-02-01T18:35:43.198Z,100.00
2023-02-01T18:40:53.441Z,100.00
2023-02-01T18:45:55.615Z,100.00
2023-02-01T18:50:57.884Z,100.00
2023-02-01T18:56:00.053Z,99.83
2023-02-01T19:01:07.368Z,99.15
2023-02-01T19:06:09.605Z,98.18
2023-02-01T19:11:11.328Z,97.36
2023-02-01T19:16:13.805Z,95.69
2023-02-01T19:21:15.586Z,96.63
2023-02-01T19:26:18.474Z,95.70
2023-02-01T19:31:20.321Z,94.57
2023-02-01T19:36:22.085Z,94.24
2023-02-01T19:41:23.894Z,94.53
2023-02-01T19:46:26.109Z,94.21
2023-02-01T19:51:27.777Z,94.13
2023-02-01T19:56:29.540Z,95.56
2023-02-01T20:01:32.028Z,92.68
2023-02-01T20:06:38.327Z,93.87
2023-02-01T20:11:40.433Z,94.46
2023-02-01T20:16:42.632Z,95.01
2023-02-01T20:21:44.714Z,92.53
2023-02-01T20:26:49.087Z,92.23
2023-02-01T20:31:51.567Z,92.72
2023-02-01T20:36:53.390Z,99.32
2023-02-01T20:41:55.827Z,100.00
2023-02-01T20:46:58.775Z,100.00
2023-02-01T20:52:00.488Z,100.00
2023-02-01T20:57:02.514Z,100.00
2023-02-01T21:02:04.565Z,98.67
2023-02-01T21:07:06.269Z,98.42
2023-02-01T21:12:07.970Z,99.30
2023-02-01T21:17:09.704Z,97.51
2023-02-01T21:22:12.595Z,96.99
2023-02-01T21:27:14.708Z,96.40
2023-02-01T21:32:16.390Z,97.40
2023-02-01T21:37:18.485Z,98.10
2023-02-01T21:42:21.979Z,98.26
2023-02-01T21:47:25.908Z,98.57
2023-02-01T21:52:28.440Z,98.64
2023-02-01T21:57:30.272Z,97.60
2023-02-01T22:02:31.988Z,98.27
2023-02-01T22:07:36.039Z,99.20
2023-02-01T22:12:37.729Z,99.91
2023-02-01T22:17:39.427Z,100.00
2023-02-01T22:22:41.371Z,100.00
2023-02-01T22:28:32.463Z,100.00
2023-02-01T22:33:04.744Z,100.00
2023-02-01T22:38:06.380Z,98.94
2023-02-01T22:43:08.099Z,98.15
2023-02-01T22:48:09.858Z,97.98
2023-02-01T22:53:12.020Z,96.97
2023-02-01T22:58:13.739Z,96.90
2023-02-01T23:03:15.463Z,96.22
2023-02-01T23:08:17.147Z,95.47
2023-02-01T23:13:18.777Z,94.09
2023-02-01T23:18:20.507Z,93.64
2023-02-01T23:23:22.207Z,93.54
2023-02-01T23:28:23.912Z,94.54
2023-02-01T23:33:26.965Z,93.23
2023-02-01T23:38:29.245Z,94.96
2023-02-01T23:43:50.117Z,95.93
2023-02-01T23:48:52.394Z,94.32
2023-02-01T23:53:55.538Z,94.58
2023-02-01T23:58:57.157Z,94.81
